Time;durP1;ratioP1;P1;durP2;ratioP2;P2;SDS_P1;SDS_P2;PMS_P1;PMS_P2;Temp;Humidity;BMP_temperature;BMP_pressure;BME280_temperature;BME280_humidity;BME280_pressure;Samples;Min_cycle;Max_cycle;Signal;HPM_P1;HPM_P2
2022/04/21 00:00:25;;;;;;;12.05;11.35;;;;;;;;;;5077438;28;20040;-44
2022/04/21 00:02:50;;;;;;;11.82;11.13;;;;;;;;;;5078561;28;20111;-45
2022/04/21 00:05:16;;;;;;;8.68;8.07;;;;;;;;;;5078485;28;20105;-44
2022/04/21 00:07:41;;;;;;;8.25;7.70;;;;;;;;;;5075550;28;20093;-46
2022/04/21 00:10:08;;;;;;;9.95;9.35;;;;;;;;;;5077235;28;20038;-45
2022/04/21 00:12:34;;;;;;;9.65;8.98;;;;;;;;;;5079101;28;20381;-44
2022/04/21 00:15:00;;;;;;;7.30;6.80;;;;;;;;;;5073229;28;20036;-44
2022/04/21 00:17:26;;;;;;;10.88;10.13;;;;;;;;;;5078907;28;20040;-44
2022/04/21 00:19:51;;;;;;;9.55;8.95;;;;;;;;;;5078195;28;20040;-44
2022/04/21 00:25:00;;;;;;;6.90;6.40;;;;;;;;;;5080308;28;20032;-45
2022/04/21 00:27:26;;;;;;;6.80;6.32;;;;;;;;;;5077475;28;20028;-45
2022/04/21 00:29:52;;;;;;;6.60;6.10;;;;;;;;;;5076289;28;20060;-44
2022/04/21 00:32:17;;;;;;;6.82;6.32;;;;;;;;;;5077485;28;20024;-46
2022/04/21 00:34:42;;;;;;;7.30;6.80;;;;;;;;;;5078715;28;20489;-44
2022/04/21 00:37:08;;;;;;;8.35;7.65;;;;;;;;;;5078662;28;20530;-44
2022/04/21 00:39:34;;;;;;;8.02;7.53;;;;;;;;;;5076747;28;20086;-44
2022/04/21 00:42:00;;;;;;;7.18;6.57;;;;;;;;;;5080822;28;20406;-43
2022/04/21 00:44:27;;;;;;;6.35;5.93;;;;;;;;;;5074215;28;20040;-43
2022/04/21 00:47:00;;;;;;;8.38;7.80;;;;;;;;;;5077556;28;20032;-44
2022/04/21 00:49:27;;;;;;;9.65;9.05;;;;;;;;;;5085046;28;20028;-45
2022/04/21 00:51:54;;;;;;;7.10;6.60;;;;;;;;;;5075864;28;20119;-43
2022/04/21 00:54:19;;;;;;;10.30;9.70;;;;;;;;;;5079599;28;20024;-45
2022/04/21 00:56:45;;;;;;;6.47;5.97;;;;;;;;;;5075916;28;20624;-45
2022/04/21 00:59:13;;;;;;;6.82;6.32;;;;;;;;;;5073471;28;20090;-44
2022/04/21 01:04:24;;;;;;;7.70;7.20;;;;;;;;;;5078341;28;20487;-44
2022/04/21 01:06:53;;;;;;;6.85;6.35;;;;;;;;;;5078604;28;20064;-43
2022/04/21 01:09:19;;;;;;;6.45;5.97;;;;;;;;;;5076127;28;20085;-45
2022/04/21 01:11:49;;;;;;;6.60;6.10;;;;;;;;;;5077241;28;20039;-44
2022/04/21 01:14:15;;;;;;;7.67;7.17;;;;;;;;;;5077033;28;20086;-44
2022/04/21 01:16:40;;;;;;;6.85;6.35;;;;;;;;;;5078248;28;20015;-44
2022/04/21 01:19:06;;;;;;;8.50;7.90;;;;;;;;;;5079172;28;20127;-44
2022/04/21 01:21:31;;;;;;;8.18;7.57;;;;;;;;;;5076591;28;20032;-44
2022/04/21 01:23:56;;;;;;;7.68;7.18;;;;;;;;;;5078342;28;20130;-43
2022/04/21 01:26:22;;;;;;;8.02;7.53;;;;;;;;;;5074999;28;20024;-45
2022/04/21 01:28:49;;;;;;;11.25;10.55;;;;;;;;;;5076410;28;20469;-44
2022/04/21 01:31:24;;;;;;;11.95;11.23;;;;;;;;;;5085835;28;20059;-44
2022/04/21 01:33:50;;;;;;;10.35;9.73;;;;;;;;;;5078182;28;20040;-44
2022/04/21 01:36:16;;;;;;;11.50;10.77;;;;;;;;;;5077765;28;20088;-44
2022/04/21 01:41:25;;;;;;;9.65;9.05;;;;;;;;;;5075705;28;20040;-43
2022/04/21 01:43:50;;;;;;;13.98;13.18;;;;;;;;;;5077875;28;20457;-45
2022/04/21 01:46:16;;;;;;;14.10;13.20;;;;;;;;;;5080065;28;20499;-49
2022/04/21 01:48:42;;;;;;;13.52;12.73;;;;;;;;;;5077009;28;20078;-48
2022/04/21 01:51:07;;;;;;;13.68;12.88;;;;;;;;;;5077215;28;20174;-49
2022/04/21 01:53:32;;;;;;;15.13;14.23;;;;;;;;;;5075514;28;20053;-50
2022/04/21 01:55:58;;;;;;;15.15;14.25;;;;;;;;;;5072987;28;20614;-47
2022/04/21 01:58:23;;;;;;;14.13;13.25;;;;;;;;;;5075923;28;20028;-48
2022/04/21 02:00:48;;;;;;;16.67;15.40;;;;;;;;;;5077056;28;20401;-49
2022/04/21 02:03:14;;;;;;;14.63;13.75;;;;;;;;;;5074076;28;20461;-48
2022/04/21 02:05:39;;;;;;;16.42;15.43;;;;;;;;;;5077526;28;20031;-51
2022/04/21 02:08:05;;;;;;;14.13;13.32;;;;;;;;;;5074482;28;20032;-49
2022/04/21 02:10:30;;;;;;;16.48;15.48;;;;;;;;;;5076664;28;20033;-47
2022/04/21 02:12:56;;;;;;;17.70;16.70;;;;;;;;;;5076051;28;20039;-52
2022/04/21 02:15:23;;;;;;;17.13;15.82;;;;;;;;;;5076828;28;20060;-49
2022/04/21 02:17:49;;;;;;;13.27;12.25;;;;;;;;;;5071980;28;20097;-48
2022/04/21 02:20:16;;;;;;;16.50;15.55;;;;;;;;;;5076099;28;20040;-50
2022/04/21 02:22:46;;;;;;;16.25;15.25;;;;;;;;;;5078233;28;20047;-48
2022/04/21 02:25:14;;;;;;;15.25;14.35;;;;;;;;;;5075477;28;20016;-51
2022/04/21 02:27:41;;;;;;;14.30;13.43;;;;;;;;;;5076258;28;20047;-48
2022/04/21 02:30:09;;;;;;;15.65;14.75;;;;;;;;;;5076790;28;20033;-48
2022/04/21 02:32:35;;;;;;;12.68;11.77;;;;;;;;;;5075450;28;20025;-50
2022/04/21 02:35:01;;;;;;;12.65;11.88;;;;;;;;;;5075852;28;20531;-47
2022/04/21 02:37:26;;;;;;;13.75;12.95;;;;;;;;;;5076557;28;20059;-49
2022/04/21 02:39:51;;;;;;;11.10;10.40;;;;;;;;;;5076833;28;20070;-48
2022/04/21 02:42:19;;;;;;;10.52;9.82;;;;;;;;;;5075826;28;20231;-48
2022/04/21 02:44:45;;;;;;;11.82;11.13;;;;;;;;;;5076040;28;20097;-48
2022/04/21 02:47:10;;;;;;;8.45;7.85;;;;;;;;;;5076404;28;20033;-49
2022/04/21 02:49:36;;;;;;;10.25;9.63;;;;;;;;;;5074282;28;20029;-47
2022/04/21 02:52:05;;;;;;;7.68;7.18;;;;;;;;;;5073634;28;20060;-49
2022/04/21 02:57:20;;;;;;;11.38;10.68;;;;;;;;;;5075131;28;20047;-48
2022/04/21 02:59:54;;;;;;;9.65;8.95;;;;;;;;;;5075206;28;20032;-50
2022/04/21 03:02:21;;;;;;;8.40;7.82;;;;;;;;;;5076179;28;20567;-50
2022/04/21 03:04:47;;;;;;;8.05;7.35;;;;;;;;;;5073465;28;20317;-48
2022/04/21 03:07:13;;;;;;;7.10;6.60;;;;;;;;;;5075180;28;20021;-49
2022/04/21 03:09:39;;;;;;;6.07;5.68;;;;;;;;;;5076095;28;20023;-48
2022/04/21 03:12:07;;;;;;;8.43;7.65;;;;;;;;;;5074882;28;20024;-48
2022/04/21 03:14:35;;;;;;;8.35;7.57;;;;;;;;;;5073112;28;20056;-48
2022/04/21 03:17:01;;;;;;;6.20;5.70;;;;;;;;;;5074245;28;20059;-49
2022/04/21 03:19:26;;;;;;;6.75;6.25;;;;;;;;;;5074437;28;20064;-48
2022/04/21 03:24:58;;;;;;;7.03;6.47;;;;;;;;;;5076595;28;20136;-48
2022/04/21 03:27:26;;;;;;;6.60;6.10;;;;;;;;;;5060213;28;20032;-49
2022/04/21 03:29:52;;;;;;;6.75;6.25;;;;;;;;;;5074205;28;20028;-48
2022/04/21 03:32:17;;;;;;;6.30;5.90;;;;;;;;;;5073610;28;20040;-48
2022/04/21 03:34:43;;;;;;;7.53;7.03;;;;;;;;;;5074923;28;20073;-52
2022/04/21 03:37:10;;;;;;;7.43;6.82;;;;;;;;;;5076195;28;20693;-50
2022/04/21 03:39:37;;;;;;;7.18;6.68;;;;;;;;;;5073128;28;20034;-48
2022/04/21 03:42:06;;;;;;;6.45;5.95;;;;;;;;;;5075808;28;20036;-51
2022/04/21 03:44:32;;;;;;;7.05;6.55;;;;;;;;;;5075775;28;20039;-47
2022/04/21 03:46:58;;;;;;;6.55;6.05;;;;;;;;;;5075974;28;20362;-48
2022/04/21 03:49:28;;;;;;;8.25;7.68;;;;;;;;;;5075816;28;20081;-50
2022/04/21 03:51:54;;;;;;;7.32;6.82;;;;;;;;;;5074326;28;20028;-50
2022/04/21 03:54:19;;;;;;;7.68;7.03;;;;;;;;;;5076504;28;20032;-50
2022/04/21 03:56:45;;;;;;;7.50;7.00;;;;;;;;;;5074912;28;20032;-50
2022/04/21 03:59:10;;;;;;;6.07;5.68;;;;;;;;;;5072923;28;20362;-51
2022/04/21 04:01:36;;;;;;;7.03;6.53;;;;;;;;;;5075675;28;20127;-49
2022/04/21 04:04:01;;;;;;;7.25;6.75;;;;;;;;;;5075548;28;20028;-51
2022/04/21 04:11:54;;;;;;;8.30;7.72;;;;;;;;;;5078747;28;20496;-52
2022/04/21 04:14:21;;;;;;;7.15;6.65;;;;;;;;;;5078036;28;20040;-48
2022/04/21 04:16:46;;;;;;;7.55;6.95;;;;;;;;;;5078756;28;20024;-50
2022/04/21 04:19:12;;;;;;;6.63;6.13;;;;;;;;;;5080041;28;20046;-51
2022/04/21 04:21:38;;;;;;;7.28;6.78;;;;;;;;;;5078733;28;20049;-50
2022/04/21 04:24:04;;;;;;;6.43;5.95;;;;;;;;;;5079439;28;20384;-52
2022/04/21 04:26:31;;;;;;;6.70;6.20;;;;;;;;;;5078810;28;20033;-50
2022/04/21 04:28:56;;;;;;;6.57;6.10;;;;;;;;;;5078699;28;20020;-48
2022/04/21 04:31:22;;;;;;;7.07;6.57;;;;;;;;;;5079933;28;20442;-50
2022/04/21 04:33:47;;;;;;;6.60;6.15;;;;;;;;;;5077078;28;20024;-51
2022/04/21 04:36:16;;;;;;;6.22;5.82;;;;;;;;;;5074601;28;20406;-51
2022/04/21 04:38:45;;;;;;;6.20;5.80;;;;;;;;;;5075951;28;20032;-52
2022/04/21 04:43:55;;;;;;;5.43;5.03;;;;;;;;;;5076273;28;20030;-53
2022/04/21 04:46:35;;;;;;;6.00;5.60;;;;;;;;;;5079684;28;20024;-53
2022/04/21 04:49:05;;;;;;;5.53;5.13;;;;;;;;;;5076362;28;20025;-51
2022/04/21 04:51:31;;;;;;;5.95;5.50;;;;;;;;;;5074771;28;20098;-51
2022/04/21 04:53:57;;;;;;;5.78;5.22;;;;;;;;;;5074704;28;20496;-52
2022/04/21 04:56:24;;;;;;;5.45;5.03;;;;;;;;;;5075964;28;20079;-52
2022/04/21 04:58:49;;;;;;;5.95;5.45;;;;;;;;;;5077072;28;20036;-51
2022/04/21 05:01:26;;;;;;;6.20;5.75;;;;;;;;;;5075204;28;20043;-52
2022/04/21 05:04:04;;;;;;;6.25;5.75;;;;;;;;;;5076116;28;20040;-53
2022/04/21 05:06:57;;;;;;;6.78;6.18;;;;;;;;;;5076047;28;20047;-48
2022/04/21 05:09:24;;;;;;;6.88;6.38;;;;;;;;;;5075856;28;20121;-50
2022/04/21 05:11:52;;;;;;;6.75;6.25;;;;;;;;;;5075416;28;20146;-50
2022/04/21 05:14:18;;;;;;;7.68;7.07;;;;;;;;;;5074821;28;20028;-53
2022/04/21 05:16:43;;;;;;;6.40;5.97;;;;;;;;;;5078070;28;20411;-51
2022/04/21 05:19:10;;;;;;;6.60;6.10;;;;;;;;;;5077929;28;20573;-48
2022/04/21 05:21:37;;;;;;;6.97;6.47;;;;;;;;;;5074734;28;20751;-49
2022/04/21 05:24:04;;;;;;;6.85;6.35;;;;;;;;;;5079449;28;20120;-48
2022/04/21 05:26:31;;;;;;;7.50;6.90;;;;;;;;;;5074413;28;20051;-51
2022/04/21 05:28:58;;;;;;;7.25;6.65;;;;;;;;;;5073313;28;20131;-55
2022/04/21 05:31:25;;;;;;;6.20;5.70;;;;;;;;;;5073288;28;20028;-48
2022/04/21 05:33:51;;;;;;;6.72;6.25;;;;;;;;;;5074601;28;20153;-49
2022/04/21 05:36:16;;;;;;;7.00;6.50;;;;;;;;;;5077272;28;20033;-47
2022/04/21 05:38:42;;;;;;;6.63;6.13;;;;;;;;;;5075047;28;20024;-47
2022/04/21 05:41:08;;;;;;;6.30;5.85;;;;;;;;;;5076667;28;20032;-52
2022/04/21 05:43:42;;;;;;;6.75;6.25;;;;;;;;;;5076609;28;20032;-49
2022/04/21 05:46:09;;;;;;;6.88;6.38;;;;;;;;;;5077852;28;20025;-52
2022/04/21 05:48:36;;;;;;;6.13;5.65;;;;;;;;;;5077973;28;20478;-50
2022/04/21 05:51:02;;;;;;;6.32;5.82;;;;;;;;;;5076815;28;20028;-51
2022/04/21 05:53:28;;;;;;;7.38;6.88;;;;;;;;;;5077202;28;20025;-50
2022/04/21 05:55:54;;;;;;;6.88;6.38;;;;;;;;;;5076679;28;20041;-48
2022/04/21 05:58:20;;;;;;;7.20;6.70;;;;;;;;;;5073820;28;20703;-50
2022/04/21 06:00:46;;;;;;;6.30;5.80;;;;;;;;;;5075400;28;20112;-51
2022/04/21 06:03:12;;;;;;;5.75;5.25;;;;;;;;;;5077451;28;20135;-49
2022/04/21 06:05:39;;;;;;;6.30;5.78;;;;;;;;;;5077066;28;20581;-50
2022/04/21 06:08:06;;;;;;;5.50;5.07;;;;;;;;;;5076927;28;20111;-49
2022/04/21 06:10:33;;;;;;;6.88;6.28;;;;;;;;;;5079801;28;20062;-48
2022/04/21 06:12:58;;;;;;;5.85;5.43;;;;;;;;;;5079457;28;20362;-47
2022/04/21 06:15:23;;;;;;;6.25;5.85;;;;;;;;;;5077056;28;20032;-47
2022/04/21 06:17:49;;;;;;;7.05;6.50;;;;;;;;;;5076623;28;20465;-48
2022/04/21 06:20:14;;;;;;;6.72;6.22;;;;;;;;;;5077622;28;20027;-48
2022/04/21 06:22:40;;;;;;;6.57;6.07;;;;;;;;;;5073066;28;20043;-48
2022/04/21 06:25:05;;;;;;;7.43;6.93;;;;;;;;;;5076924;28;20073;-52
2022/04/21 06:27:31;;;;;;;5.60;5.15;;;;;;;;;;5074842;28;20081;-49
2022/04/21 06:29:56;;;;;;;7.72;7.13;;;;;;;;;;5076140;28;20678;-52
2022/04/21 06:32:23;;;;;;;7.90;7.28;;;;;;;;;;5075207;28;20346;-49
2022/04/21 06:34:48;;;;;;;5.93;5.43;;;;;;;;;;5075336;28;20037;-49
2022/04/21 06:37:13;;;;;;;5.82;5.43;;;;;;;;;;5076074;28;20051;-49
2022/04/21 06:39:39;;;;;;;6.85;6.35;;;;;;;;;;5074234;28;20031;-53
2022/04/21 06:42:04;;;;;;;10.30;9.48;;;;;;;;;;5074753;28;20040;-51
2022/04/21 06:50:11;;;;;;;7.13;6.63;;;;;;;;;;5066013;28;20044;-49
2022/04/21 06:52:37;;;;;;;7.70;7.10;;;;;;;;;;5079225;28;20088;-48
2022/04/21 06:55:03;;;;;;;6.38;5.88;;;;;;;;;;5078720;28;20093;-50
2022/04/21 06:57:29;;;;;;;8.07;7.55;;;;;;;;;;5072679;28;20036;-48
2022/04/21 06:59:54;;;;;;;6.55;6.05;;;;;;;;;;5076682;28;20031;-50
2022/04/21 07:02:37;;;;;;;6.28;5.78;;;;;;;;;;5075174;28;20043;-49
2022/04/21 07:05:08;;;;;;;6.85;6.35;;;;;;;;;;5074079;28;20665;-48
2022/04/21 07:07:33;;;;;;;8.00;7.47;;;;;;;;;;5075023;28;20473;-52
2022/04/21 07:10:00;;;;;;;6.15;5.65;;;;;;;;;;5076691;28;20028;-47
2022/04/21 07:12:29;;;;;;;7.90;7.22;;;;;;;;;;5074498;28;20024;-51
2022/04/21 07:15:14;;;;;;;7.93;7.18;;;;;;;;;;5078924;28;20051;-49
2022/04/21 07:17:40;;;;;;;8.18;7.57;;;;;;;;;;5074981;28;20038;-48
2022/04/21 07:20:08;;;;;;;5.75;5.32;;;;;;;;;;5071150;28;20028;-49
2022/04/21 07:22:33;;;;;;;6.50;6.05;;;;;;;;;;5072447;28;20025;-53
2022/04/21 07:25:02;;;;;;;6.63;6.13;;;;;;;;;;5067144;28;20042;-51
2022/04/21 07:27:27;;;;;;;5.72;5.22;;;;;;;;;;5072442;28;20096;-50
2022/04/21 07:29:53;;;;;;;5.78;5.28;;;;;;;;;;5074037;28;20095;-49
2022/04/21 07:32:19;;;;;;;5.30;4.90;;;;;;;;;;5072694;28;20024;-50
2022/04/21 07:34:44;;;;;;;6.00;5.50;;;;;;;;;;5073463;28;20119;-51
2022/04/21 07:37:10;;;;;;;6.07;5.68;;;;;;;;;;5075829;28;20115;-49
2022/04/21 07:39:37;;;;;;;6.38;5.88;;;;;;;;;;5075575;28;20365;-49
2022/04/21 07:42:13;;;;;;;6.05;5.55;;;;;;;;;;5075710;28;20032;-50
2022/04/21 07:44:39;;;;;;;6.07;5.63;;;;;;;;;;5072444;28;20101;-49
2022/04/21 07:47:05;;;;;;;5.85;5.45;;;;;;;;;;5075543;28;20501;-51
2022/04/21 07:49:48;;;;;;;5.90;5.50;;;;;;;;;;5076998;28;20043;-50
2022/04/21 07:55:17;;;;;;;6.90;6.38;;;;;;;;;;5081418;28;20036;-53
2022/04/21 07:57:44;;;;;;;5.80;5.40;;;;;;;;;;5080474;28;20359;-54
2022/04/21 08:00:11;;;;;;;5.90;5.47;;;;;;;;;;5078996;28;20036;-54
2022/04/21 08:02:41;;;;;;;5.60;5.20;;;;;;;;;;5080950;28;20483;-52
2022/04/21 08:05:08;;;;;;;5.85;5.45;;;;;;;;;;5076778;28;20033;-51
2022/04/21 08:07:34;;;;;;;5.60;5.10;;;;;;;;;;5079462;28;20742;-50
2022/04/21 08:10:04;;;;;;;5.85;5.35;;;;;;;;;;5078271;28;20505;-53
2022/04/21 08:12:39;;;;;;;5.75;5.25;;;;;;;;;;5077746;28;20498;-49
2022/04/21 08:15:06;;;;;;;5.78;5.28;;;;;;;;;;5078869;28;20032;-50
2022/04/21 08:17:31;;;;;;;5.45;5.03;;;;;;;;;;5076978;28;20036;-50
2022/04/21 08:19:57;;;;;;;6.38;5.80;;;;;;;;;;5075627;28;20063;-49
2022/04/21 08:22:22;;;;;;;5.55;5.05;;;;;;;;;;5078046;28;20039;-50
2022/04/21 08:32:59;;;;;;;5.35;4.95;;;;;;;;;;5076404;28;20122;-54
2022/04/21 08:35:25;;;;;;;5.53;5.13;;;;;;;;;;5074785;28;20529;-51
2022/04/21 08:37:51;;;;;;;5.10;4.70;;;;;;;;;;5075503;28;20136;-52
2022/04/21 08:40:16;;;;;;;5.82;5.35;;;;;;;;;;5079212;28;20151;-50
2022/04/21 08:42:43;;;;;;;5.18;4.78;;;;;;;;;;5077999;28;20032;-49
2022/04/21 08:45:10;;;;;;;6.07;5.57;;;;;;;;;;5074694;28;20454;-48
2022/04/21 08:47:39;;;;;;;6.45;5.95;;;;;;;;;;5075552;28;20040;-49
2022/04/21 08:50:14;;;;;;;5.45;5.05;;;;;;;;;;5078644;28;20024;-51
2022/04/21 08:52:41;;;;;;;5.60;5.10;;;;;;;;;;5078735;28;20111;-52
2022/04/21 08:55:08;;;;;;;6.30;5.80;;;;;;;;;;5077935;28;20173;-50
2022/04/21 08:57:35;;;;;;;6.63;6.13;;;;;;;;;;5077109;28;20039;-52
2022/04/21 09:00:02;;;;;;;7.07;6.57;;;;;;;;;;5076263;28;20335;-52
2022/04/21 09:02:39;;;;;;;7.82;7.22;;;;;;;;;;5075520;28;20036;-53
2022/04/21 09:05:06;;;;;;;7.88;7.38;;;;;;;;;;5078361;28;20159;-53
2022/04/21 09:07:41;;;;;;;9.00;8.40;;;;;;;;;;5076344;28;20564;-51
2022/04/21 09:10:11;;;;;;;8.65;8.05;;;;;;;;;;5076845;28;20032;-49
2022/04/21 09:12:40;;;;;;;9.05;8.45;;;;;;;;;;5074594;28;20539;-53
2022/04/21 09:15:08;;;;;;;16.00;15.00;;;;;;;;;;5074972;28;20039;-54
2022/04/21 09:17:46;;;;;;;12.90;12.10;;;;;;;;;;5073833;28;20032;-49
2022/04/21 09:20:13;;;;;;;9.20;8.60;;;;;;;;;;5075672;28;20351;-53
2022/04/21 09:22:42;;;;;;;22.30;21.05;;;;;;;;;;5076064;28;20108;-50
2022/04/21 09:25:08;;;;;;;11.57;10.88;;;;;;;;;;5078219;28;20031;-53
2022/04/21 09:27:48;;;;;;;11.63;10.65;;;;;;;;;;5078289;28;20024;-53
2022/04/21 09:30:14;;;;;;;15.20;14.30;;;;;;;;;;5077063;28;20042;-52
2022/04/21 09:32:42;;;;;;;9.52;8.93;;;;;;;;;;5076868;28;20480;-49
2022/04/21 09:35:09;;;;;;;22.58;21.38;;;;;;;;;;5080078;28;20458;-52
2022/04/21 09:37:49;;;;;;;24.33;23.02;;;;;;;;;;5076255;28;20422;-49
2022/04/21 09:40:16;;;;;;;38.42;36.42;;;;;;;;;;5072983;28;20050;-47
2022/04/21 09:42:42;;;;;;;12.23;11.52;;;;;;;;;;5073567;28;20027;-52
2022/04/21 09:47:54;;;;;;;30.23;28.58;;;;;;;;;;5074340;28;20028;-49
2022/04/21 09:50:21;;;;;;;64.88;61.58;;;;;;;;;;5074700;28;20079;-46
2022/04/21 09:52:53;;;;;;;70.40;66.88;;;;;;;;;;5074377;28;20059;-49
2022/04/21 09:55:26;;;;;;;68.03;64.63;;;;;;;;;;5075385;28;20575;-47
2022/04/21 09:58:06;;;;;;;84.65;80.45;;;;;;;;;;5073424;28;20039;-46
2022/04/21 10:00:33;;;;;;;87.85;83.50;;;;;;;;;;5073099;28;20104;-45
2022/04/21 10:03:00;;;;;;;83.95;79.80;;;;;;;;;;5074287;28;20047;-48
2022/04/21 10:05:26;;;;;;;42.22;40.05;;;;;;;;;;5075103;28;20024;-47
2022/04/21 10:07:53;;;;;;;46.00;43.63;;;;;;;;;;5078416;28;20111;-50
2022/04/21 10:10:18;;;;;;;34.08;32.28;;;;;;;;;;5072259;28;20044;-47
2022/04/21 10:12:44;;;;;;;36.70;34.78;;;;;;;;;;5076149;28;20334;-48
2022/04/21 10:15:10;;;;;;;21.40;20.23;;;;;;;;;;5075506;28;20488;-45
2022/04/21 10:17:36;;;;;;;53.00;50.33;;;;;;;;;;5073599;28;20472;-45
2022/04/21 10:20:03;;;;;;;42.50;40.33;;;;;;;;;;5078052;28;20625;-47
2022/04/21 10:22:33;;;;;;;25.98;24.58;;;;;;;;;;5073987;28;20036;-46
2022/04/21 10:24:58;;;;;;;10.63;9.97;;;;;;;;;;5075558;28;20094;-45
2022/04/21 10:27:45;;;;;;;12.13;11.43;;;;;;;;;;5075684;28;20301;-45
2022/04/21 10:30:21;;;;;;;15.50;14.60;;;;;;;;;;5076378;28;20031;-45
2022/04/21 10:32:50;;;;;;;26.30;24.90;;;;;;;;;;5071998;28;20107;-44
2022/04/21 10:35:28;;;;;;;36.55;34.60;;;;;;;;;;5073836;28;20028;-44
2022/04/21 10:38:12;;;;;;;17.33;16.33;;;;;;;;;;5071954;28;20097;-46
2022/04/21 10:41:00;;;;;;;11.45;10.75;;;;;;;;;;5075578;28;20107;-45
2022/04/21 10:43:48;;;;;;;14.13;13.27;;;;;;;;;;5077922;28;20047;-45
2022/04/21 10:46:19;;;;;;;34.88;33.03;;;;;;;;;;5075252;28;20037;-53
2022/04/21 10:48:45;;;;;;;12.73;11.93;;;;;;;;;;5074205;28;20036;-46
2022/04/21 10:51:11;;;;;;;12.07;11.38;;;;;;;;;;5071356;28;20497;-52
2022/04/21 10:59:31;;;;;;;12.20;11.50;;;;;;;;;;5071860;28;20511;-46
2022/04/21 11:02:17;;;;;;;16.85;15.85;;;;;;;;;;5072982;28;20036;-46
2022/04/21 11:04:42;;;;;;;17.83;16.48;;;;;;;;;;5074966;28;20044;-44
2022/04/21 11:07:12;;;;;;;30.35;28.70;;;;;;;;;;5072933;28;20039;-46
2022/04/21 11:09:47;;;;;;;17.05;16.13;;;;;;;;;;5075024;28;20024;-44
2022/04/21 11:12:16;;;;;;;32.22;30.50;;;;;;;;;;5076827;28;20036;-44
2022/04/21 11:14:42;;;;;;;36.25;34.38;;;;;;;;;;5073157;28;20041;-44
2022/04/21 11:17:08;;;;;;;34.80;33.00;;;;;;;;;;5076435;28;20024;-44
2022/04/21 11:19:36;;;;;;;41.00;38.90;;;;;;;;;;5069628;28;20506;-49
2022/04/21 11:22:05;;;;;;;39.63;37.63;;;;;;;;;;5072199;28;20048;-49
2022/04/21 11:24:55;;;;;;;42.28;40.08;;;;;;;;;;5077832;28;20094;-52
2022/04/21 11:27:24;;;;;;;37.00;35.10;;;;;;;;;;5074252;28;20029;-46
2022/04/21 11:29:50;;;;;;;39.72;37.72;;;;;;;;;;5078665;28;20032;-49
2022/04/21 11:32:16;;;;;;;36.83;34.95;;;;;;;;;;5078541;28;20059;-50
2022/04/21 11:34:56;;;;;;;41.67;39.55;;;;;;;;;;5078142;28;20036;-50
2022/04/21 11:37:21;;;;;;;40.20;38.10;;;;;;;;;;5076509;28;20969;-48
2022/04/21 11:39:46;;;;;;;43.65;41.45;;;;;;;;;;5079432;28;20072;-46
2022/04/21 11:42:22;;;;;;;40.72;38.63;;;;;;;;;;5076182;28;20429;-46
2022/04/21 11:44:48;;;;;;;38.47;36.47;;;;;;;;;;5076781;28;20024;-45
2022/04/21 11:47:18;;;;;;;37.75;35.80;;;;;;;;;;5073208;28;20043;-46
2022/04/21 11:49:58;;;;;;;40.10;38.00;;;;;;;;;;5080741;28;20549;-47
2022/04/21 11:52:27;;;;;;;40.67;38.53;;;;;;;;;;5079014;28;20649;-46
2022/04/21 11:55:04;;;;;;;39.03;36.95;;;;;;;;;;5076306;28;20043;-46
2022/04/21 11:57:44;;;;;;;41.63;39.53;;;;;;;;;;5075736;28;20470;-45
2022/04/21 12:00:11;;;;;;;39.08;37.00;;;;;;;;;;5076256;28;20063;-46
2022/04/21 12:08:11;;;;;;;39.03;37.03;;;;;;;;;;5078922;28;20032;-46
2022/04/21 12:10:37;;;;;;;41.53;39.35;;;;;;;;;;5078243;28;20530;-45
2022/04/21 12:13:03;;;;;;;45.22;42.92;;;;;;;;;;5069955;28;20044;-47
2022/04/21 12:15:29;;;;;;;44.00;41.80;;;;;;;;;;5078428;28;20071;-46
2022/04/21 12:17:59;;;;;;;43.00;40.78;;;;;;;;;;5077144;28;20036;-45
2022/04/21 12:20:25;;;;;;;40.25;38.15;;;;;;;;;;5077249;28;20392;-45
2022/04/21 12:22:50;;;;;;;32.35;30.65;;;;;;;;;;5075558;28;20040;-46
2022/04/21 12:25:15;;;;;;;35.95;34.10;;;;;;;;;;5079855;28;20505;-44
2022/04/21 12:27:42;;;;;;;42.35;40.05;;;;;;;;;;5076164;28;20085;-46
2022/04/21 12:30:11;;;;;;;38.60;36.60;;;;;;;;;;5076452;28;20459;-45
2022/04/21 12:32:42;;;;;;;37.58;35.67;;;;;;;;;;5072034;28;20693;-47
2022/04/21 12:35:10;;;;;;;33.30;31.50;;;;;;;;;;5073595;28;20252;-47
2022/04/21 12:37:41;;;;;;;37.72;35.72;;;;;;;;;;5075476;28;20339;-46
2022/04/21 12:40:12;;;;;;;33.55;31.80;;;;;;;;;;5077965;28;20029;-46
2022/04/21 12:42:40;;;;;;;37.83;35.92;;;;;;;;;;5076371;28;20024;-45
2022/04/21 12:45:09;;;;;;;40.67;38.53;;;;;;;;;;5075881;28;20032;-45
2022/04/21 12:47:50;;;;;;;34.80;32.88;;;;;;;;;;5074409;28;20028;-49
2022/04/21 12:50:23;;;;;;;39.70;37.60;;;;;;;;;;5079578;28;20020;-47
2022/04/21 12:52:49;;;;;;;40.90;38.78;;;;;;;;;;5080042;28;20032;-46
2022/04/21 12:55:17;;;;;;;38.50;36.50;;;;;;;;;;5074942;28;20032;-44
2022/04/21 12:57:59;;;;;;;46.00;43.63;;;;;;;;;;5075838;28;20037;-46
2022/04/21 13:00:26;;;;;;;40.80;38.70;;;;;;;;;;5077411;28;20027;-46
2022/04/21 13:02:51;;;;;;;44.42;42.13;;;;;;;;;;5075200;28;20040;-45
2022/04/21 13:05:17;;;;;;;37.63;35.67;;;;;;;;;;5079361;28;20036;-46
2022/04/21 13:07:42;;;;;;;32.90;31.20;;;;;;;;;;5076888;28;20053;-44
2022/04/21 13:10:07;;;;;;;36.10;34.20;;;;;;;;;;5078413;28;20016;-46
2022/04/21 13:12:33;;;;;;;40.85;38.75;;;;;;;;;;5075447;28;20054;-44
2022/04/21 13:15:00;;;;;;;42.90;40.70;;;;;;;;;;5077255;28;20136;-45
2022/04/21 13:17:25;;;;;;;46.22;43.88;;;;;;;;;;5078270;28;20043;-46
2022/04/21 13:19:51;;;;;;;41.25;39.15;;;;;;;;;;5076047;28;20132;-47
2022/04/21 13:22:16;;;;;;;46.58;44.20;;;;;;;;;;5074981;28;20080;-45
2022/04/21 13:24:42;;;;;;;44.30;42.00;;;;;;;;;;5077698;28;20020;-48
2022/04/21 13:27:07;;;;;;;47.50;45.10;;;;;;;;;;5076732;28;20058;-45
2022/04/21 13:29:33;;;;;;;43.13;40.88;;;;;;;;;;5078089;28;20031;-45
2022/04/21 13:34:43;;;;;;;39.53;36.80;;;;;;;;;;5074377;28;20047;-48
2022/04/21 13:37:08;;;;;;;22.23;21.02;;;;;;;;;;5073913;28;20428;-45
2022/04/21 13:39:35;;;;;;;44.05;41.72;;;;;;;;;;5075724;28;20042;-46
2022/04/21 13:42:02;;;;;;;37.03;35.13;;;;;;;;;;5072358;28;20111;-47
2022/04/21 13:44:27;;;;;;;41.33;39.22;;;;;;;;;;5072903;28;20033;-45
2022/04/21 13:46:55;;;;;;;36.95;35.05;;;;;;;;;;5074994;28;20033;-47
2022/04/21 13:49:20;;;;;;;44.85;42.55;;;;;;;;;;5073914;28;20055;-45
2022/04/21 13:51:46;;;;;;;50.42;47.88;;;;;;;;;;5073845;28;20020;-45
2022/04/21 13:54:14;;;;;;;47.95;45.55;;;;;;;;;;5074040;28;20458;-45
2022/04/21 13:56:41;;;;;;;41.20;39.00;;;;;;;;;;5074803;28;20066;-47
2022/04/21 13:59:06;;;;;;;43.08;40.88;;;;;;;;;;5080447;28;20618;-47
2022/04/21 14:01:32;;;;;;;39.92;37.92;;;;;;;;;;5071413;28;20035;-47
2022/04/21 14:03:57;;;;;;;32.65;30.88;;;;;;;;;;5073302;28;20036;-45
2022/04/21 14:06:24;;;;;;;37.28;35.38;;;;;;;;;;5073890;28;20032;-46
2022/04/21 14:08:50;;;;;;;31.70;29.98;;;;;;;;;;5074246;28;20032;-45
2022/04/21 14:11:16;;;;;;;34.80;32.97;;;;;;;;;;5076073;28;20031;-45
2022/04/21 14:13:45;;;;;;;39.30;37.30;;;;;;;;;;5073828;28;20028;-54
2022/04/21 14:16:12;;;;;;;36.97;35.08;;;;;;;;;;5076026;28;20035;-45
2022/04/21 14:18:38;;;;;;;35.22;33.42;;;;;;;;;;5073031;28;20110;-47
2022/04/21 14:21:06;;;;;;;33.17;31.45;;;;;;;;;;5076146;28;20111;-44
2022/04/21 14:23:35;;;;;;;37.33;35.42;;;;;;;;;;5076544;28;20064;-45
2022/04/21 14:26:09;;;;;;;39.10;37.10;;;;;;;;;;5075682;28;20043;-45
2022/04/21 14:28:36;;;;;;;37.08;35.08;;;;;;;;;;5077897;28;20036;-48
2022/04/21 14:31:02;;;;;;;38.05;36.03;;;;;;;;;;5075857;28;20369;-45
2022/04/21 14:33:27;;;;;;;36.65;34.75;;;;;;;;;;5072630;28;20060;-46
2022/04/21 14:35:53;;;;;;;39.65;37.40;;;;;;;;;;5077886;28;20067;-45
2022/04/21 14:44:06;;;;;;;34.13;32.33;;;;;;;;;;5072041;28;20036;-44
2022/04/21 14:46:34;;;;;;;27.30;25.88;;;;;;;;;;5069939;28;20055;-46
2022/04/21 14:48:59;;;;;;;28.58;27.08;;;;;;;;;;5074409;28;20258;-45
2022/04/21 14:51:27;;;;;;;29.83;28.27;;;;;;;;;;5076317;28;20354;-47
2022/04/21 14:53:52;;;;;;;25.83;24.45;;;;;;;;;;5077402;28;20066;-46
2022/04/21 14:56:18;;;;;;;24.92;23.63;;;;;;;;;;5073401;28;20064;-44
2022/04/21 14:58:43;;;;;;;30.27;28.70;;;;;;;;;;5072747;28;20024;-46
2022/04/21 15:01:09;;;;;;;27.67;26.23;;;;;;;;;;5074507;28;20529;-45
2022/04/21 15:03:36;;;;;;;26.60;25.20;;;;;;;;;;5074795;28;20116;-47
2022/04/21 15:06:06;;;;;;;26.92;25.50;;;;;;;;;;5076473;28;20411;-50
2022/04/21 15:08:31;;;;;;;26.15;24.75;;;;;;;;;;5073109;28;20559;-47
2022/04/21 15:10:57;;;;;;;19.70;18.60;;;;;;;;;;5073644;28;20032;-46
2022/04/21 15:13:23;;;;;;;21.65;20.48;;;;;;;;;;5075019;28;20024;-52
2022/04/21 15:15:48;;;;;;;16.90;15.98;;;;;;;;;;5077882;28;20032;-53
2022/04/21 15:18:13;;;;;;;15.25;14.35;;;;;;;;;;5071423;28;20130;-48
2022/04/21 15:20:39;;;;;;;14.75;13.85;;;;;;;;;;5077445;28;20036;-48
2022/04/21 15:23:07;;;;;;;13.27;12.48;;;;;;;;;;5073689;28;20039;-54
2022/04/21 15:25:33;;;;;;;20.67;19.58;;;;;;;;;;5075710;28;20106;-54
2022/04/21 15:27:59;;;;;;;17.70;16.70;;;;;;;;;;5071813;28;20612;-55
2022/04/21 15:30:25;;;;;;;17.55;16.55;;;;;;;;;;5075341;28;20033;-46
2022/04/21 15:32:52;;;;;;;14.35;13.52;;;;;;;;;;5077588;28;20020;-53
2022/04/21 15:35:18;;;;;;;20.63;19.52;;;;;;;;;;5075294;28;20044;-54